sensor_id;sensor_type;location;lat;lon;timestamp;P1;durP1;ratioP1;P2;durP2;ratioP2
46729;SDS011;32476;50.002;11.854;2024-01-30T00:01:06;6.23;;;2.80;;
46729;SDS011;32476;50.002;11.854;2024-01-30T00:03:33;4.20;;;2.70;;
46729;SDS011;32476;50.002;11.854;2024-01-30T00:05:59;6.77;;;3.23;;
46729;SDS011;32476;50.002;11.854;2024-01-30T00:08:25;4.13;;;2.60;;
46729;SDS011;32476;50.002;11.854;2024-01-30T00:10:53;5.30;;;2.90;;
46729;SDS011;32476;50.002;11.854;2024-01-30T00:13:19;4.50;;;2.70;;
46729;SDS011;32476;50.002;11.854;2024-01-30T00:15:45;5.27;;;2.80;;
46729;SDS011;32476;50.002;11.854;2024-01-30T00:18:13;6.10;;;2.93;;
46729;SDS011;32476;50.002;11.854;2024-01-30T00:20:39;10.13;;;3.60;;
46729;SDS011;32476;50.002;11.854;2024-01-30T00:23:05;5.70;;;3.03;;
46729;SDS011;32476;50.002;11.854;2024-01-30T00:25:32;4.90;;;3.10;;
46729;SDS011;32476;50.002;11.854;2024-01-30T00:27:59;6.30;;;3.00;;
46729;SDS011;32476;50.002;11.854;2024-01-30T00:30:24;4.70;;;3.23;;
46729;SDS011;32476;50.002;11.854;2024-01-30T00:32:53;5.13;;;3.10;;
46729;SDS011;32476;50.002;11.854;2024-01-30T00:35:19;5.77;;;2.93;;
46729;SDS011;32476;50.002;11.854;2024-01-30T00:37:48;5.13;;;3.20;;
46729;SDS011;32476;50.002;11.854;2024-01-30T00:40:15;5.37;;;2.77;;
46729;SDS011;32476;50.002;11.854;2024-01-30T00:42:43;5.43;;;3.60;;
46729;SDS011;32476;50.002;11.854;2024-01-30T00:45:15;7.00;;;3.37;;
46729;SDS011;32476;50.002;11.854;2024-01-30T00:47:43;6.10;;;3.43;;
46729;SDS011;32476;50.002;11.854;2024-01-30T00:50:10;7.67;;;3.47;;
46729;SDS011;32476;50.002;11.854;2024-01-30T00:52:36;6.07;;;3.33;;
46729;SDS011;32476;50.002;11.854;2024-01-30T00:55:05;4.97;;;3.03;;
46729;SDS011;32476;50.002;11.854;2024-01-30T00:57:32;5.63;;;2.90;;
46729;SDS011;32476;50.002;11.854;2024-01-30T00:59:57;7.23;;;3.00;;
46729;SDS011;32476;50.002;11.854;2024-01-30T01:02:25;7.40;;;3.37;;
46729;SDS011;32476;50.002;11.854;2024-01-30T01:04:51;8.70;;;2.97;;
46729;SDS011;32476;50.002;11.854;2024-01-30T01:07:17;6.63;;;3.50;;
46729;SDS011;32476;50.002;11.854;2024-01-30T01:09:44;4.23;;;2.70;;
46729;SDS011;32476;50.002;11.854;2024-01-30T01:12:10;6.27;;;2.80;;
46729;SDS011;32476;50.002;11.854;2024-01-30T01:14:36;8.63;;;3.20;;
46729;SDS011;32476;50.002;11.854;2024-01-30T01:17:03;5.77;;;3.40;;
46729;SDS011;32476;50.002;11.854;2024-01-30T01:19:29;9.33;;;3.63;;
46729;SDS011;32476;50.002;11.854;2024-01-30T01:21:56;7.27;;;3.30;;
46729;SDS011;32476;50.002;11.854;2024-01-30T01:24:24;4.00;;;2.90;;
46729;SDS011;32476;50.002;11.854;2024-01-30T01:26:50;7.83;;;2.90;;
46729;SDS011;32476;50.002;11.854;2024-01-30T01:29:16;6.60;;;3.40;;
46729;SDS011;32476;50.002;11.854;2024-01-30T01:31:43;7.47;;;3.33;;
46729;SDS011;32476;50.002;11.854;2024-01-30T01:34:12;8.10;;;3.30;;
46729;SDS011;32476;50.002;11.854;2024-01-30T01:36:39;7.20;;;3.20;;
46729;SDS011;32476;50.002;11.854;2024-01-30T01:39:06;6.13;;;3.07;;
46729;SDS011;32476;50.002;11.854;2024-01-30T01:41:33;5.50;;;2.97;;
46729;SDS011;32476;50.002;11.854;2024-01-30T01:43:59;7.43;;;3.67;;
46729;SDS011;32476;50.002;11.854;2024-01-30T01:46:27;6.23;;;2.90;;
46729;SDS011;32476;50.002;11.854;2024-01-30T01:48:58;5.67;;;3.10;;
46729;SDS011;32476;50.002;11.854;2024-01-30T01:51:26;5.00;;;2.90;;
46729;SDS011;32476;50.002;11.854;2024-01-30T01:53:55;7.80;;;3.67;;
46729;SDS011;32476;50.002;11.854;2024-01-30T01:56:22;7.83;;;3.43;;
46729;SDS011;32476;50.002;11.854;2024-01-30T01:58:49;7.90;;;3.53;;
46729;SDS011;32476;50.002;11.854;2024-01-30T02:01:18;5.20;;;2.90;;
46729;SDS011;32476;50.002;11.854;2024-01-30T02:03:46;8.37;;;3.47;;
46729;SDS011;32476;50.002;11.854;2024-01-30T02:06:15;6.67;;;3.23;;
46729;SDS011;32476;50.002;11.854;2024-01-30T02:08:43;5.90;;;3.37;;
46729;SDS011;32476;50.002;11.854;2024-01-30T02:11:09;7.07;;;3.57;;
46729;SDS011;32476;50.002;11.854;2024-01-30T02:13:36;8.63;;;3.40;;
46729;SDS011;32476;50.002;11.854;2024-01-30T02:16:04;6.73;;;3.70;;
46729;SDS011;32476;50.002;11.854;2024-01-30T02:18:30;6.40;;;3.20;;
46729;SDS011;32476;50.002;11.854;2024-01-30T02:20:56;7.17;;;3.40;;
46729;SDS011;32476;50.002;11.854;2024-01-30T02:23:28;7.33;;;3.70;;
46729;SDS011;32476;50.002;11.854;2024-01-30T02:25:55;6.67;;;3.60;;
46729;SDS011;32476;50.002;11.854;2024-01-30T02:28:21;3.67;;;2.93;;
46729;SDS011;32476;50.002;11.854;2024-01-30T02:30:49;5.63;;;3.47;;
46729;SDS011;32476;50.002;11.854;2024-01-30T02:33:15;7.67;;;3.43;;
46729;SDS011;32476;50.002;11.854;2024-01-30T02:35:41;7.43;;;4.23;;
46729;SDS011;32476;50.002;11.854;2024-01-30T02:38:08;7.33;;;3.83;;
46729;SDS011;32476;50.002;11.854;2024-01-30T02:40:34;9.17;;;3.50;;
46729;SDS011;32476;50.002;11.854;2024-01-30T02:43:01;9.87;;;5.33;;
46729;SDS011;32476;50.002;11.854;2024-01-30T02:45:29;13.60;;;5.90;;
46729;SDS011;32476;50.002;11.854;2024-01-30T02:47:55;27.60;;;11.20;;
46729;SDS011;32476;50.002;11.854;2024-01-30T02:50:21;8.07;;;4.57;;
46729;SDS011;32476;50.002;11.854;2024-01-30T02:52:49;9.83;;;5.23;;
46729;SDS011;32476;50.002;11.854;2024-01-30T02:55:15;7.67;;;4.63;;
46729;SDS011;32476;50.002;11.854;2024-01-30T02:57:43;10.73;;;4.70;;
46729;SDS011;32476;50.002;11.854;2024-01-30T03:00:11;8.97;;;4.00;;
46729;SDS011;32476;50.002;11.854;2024-01-30T03:02:37;10.70;;;4.60;;
46729;SDS011;32476;50.002;11.854;2024-01-30T03:05:05;9.80;;;4.77;;
46729;SDS011;32476;50.002;11.854;2024-01-30T03:07:33;7.43;;;3.97;;
46729;SDS011;32476;50.002;11.854;2024-01-30T03:09:59;7.80;;;4.60;;
46729;SDS011;32476;50.002;11.854;2024-01-30T03:12:25;9.53;;;5.00;;
46729;SDS011;32476;50.002;11.854;2024-01-30T03:14:53;10.10;;;4.33;;
46729;SDS011;32476;50.002;11.854;2024-01-30T03:17:19;8.47;;;4.00;;
46729;SDS011;32476;50.002;11.854;2024-01-30T03:19:45;7.57;;;4.70;;
46729;SDS011;32476;50.002;11.854;2024-01-30T03:22:13;7.60;;;4.40;;
46729;SDS011;32476;50.002;11.854;2024-01-30T03:24:38;8.63;;;4.63;;
46729;SDS011;32476;50.002;11.854;2024-01-30T03:27:04;9.50;;;4.40;;
46729;SDS011;32476;50.002;11.854;2024-01-30T03:29:32;7.97;;;4.70;;
46729;SDS011;32476;50.002;11.854;2024-01-30T03:31:58;11.67;;;4.53;;
46729;SDS011;32476;50.002;11.854;2024-01-30T03:34:24;9.33;;;5.10;;
46729;SDS011;32476;50.002;11.854;2024-01-30T03:36:51;10.17;;;4.93;;
46729;SDS011;32476;50.002;11.854;2024-01-30T03:39:17;8.33;;;4.70;;
46729;SDS011;32476;50.002;11.854;2024-01-30T03:41:43;11.50;;;5.40;;
46729;SDS011;32476;50.002;11.854;2024-01-30T03:44:11;10.00;;;5.17;;
46729;SDS011;32476;50.002;11.854;2024-01-30T03:46:37;8.80;;;5.27;;
46729;SDS011;32476;50.002;11.854;2024-01-30T03:49:02;11.17;;;4.87;;
46729;SDS011;32476;50.002;11.854;2024-01-30T03:51:30;10.40;;;5.50;;
46729;SDS011;32476;50.002;11.854;2024-01-30T03:53:56;8.70;;;5.13;;
46729;SDS011;32476;50.002;11.854;2024-01-30T03:56:22;34.10;;;19.20;;
46729;SDS011;32476;50.002;11.854;2024-01-30T03:58:51;20.47;;;11.27;;
46729;SDS011;32476;50.002;11.854;2024-01-30T04:01:17;11.90;;;6.67;;
46729;SDS011;32476;50.002;11.854;2024-01-30T04:03:43;11.53;;;6.60;;
46729;SDS011;32476;50.002;11.854;2024-01-30T04:06:10;15.13;;;6.20;;
46729;SDS011;32476;50.002;11.854;2024-01-30T04:08:37;13.63;;;8.03;;
46729;SDS011;32476;50.002;11.854;2024-01-30T04:11:04;51.97;;;36.03;;
46729;SDS011;32476;50.002;11.854;2024-01-30T04:13:32;15.07;;;6.87;;
46729;SDS011;32476;50.002;11.854;2024-01-30T04:15:59;10.40;;;6.20;;
46729;SDS011;32476;50.002;11.854;2024-01-30T04:18:28;12.63;;;6.83;;
46729;SDS011;32476;50.002;11.854;2024-01-30T04:20:56;10.07;;;5.50;;
46729;SDS011;32476;50.002;11.854;2024-01-30T04:23:22;10.57;;;6.90;;
46729;SDS011;32476;50.002;11.854;2024-01-30T04:25:48;11.10;;;6.40;;
46729;SDS011;32476;50.002;11.854;2024-01-30T04:28:16;16.07;;;6.80;;
46729;SDS011;32476;50.002;11.854;2024-01-30T04:30:42;16.00;;;7.40;;
46729;SDS011;32476;50.002;11.854;2024-01-30T04:33:08;10.53;;;6.07;;
46729;SDS011;32476;50.002;11.854;2024-01-30T04:35:35;13.10;;;6.83;;
46729;SDS011;32476;50.002;11.854;2024-01-30T04:38:01;13.97;;;6.67;;
46729;SDS011;32476;50.002;11.854;2024-01-30T04:40:27;13.27;;;7.97;;
46729;SDS011;32476;50.002;11.854;2024-01-30T04:42:55;13.47;;;8.20;;
46729;SDS011;32476;50.002;11.854;2024-01-30T04:45:21;13.37;;;7.57;;
46729;SDS011;32476;50.002;11.854;2024-01-30T04:47:46;11.67;;;7.93;;
46729;SDS011;32476;50.002;11.854;2024-01-30T04:50:14;13.70;;;7.63;;
46729;SDS011;32476;50.002;11.854;2024-01-30T04:52:40;15.33;;;8.20;;
46729;SDS011;32476;50.002;11.854;2024-01-30T04:55:06;13.63;;;7.80;;
46729;SDS011;32476;50.002;11.854;2024-01-30T04:57:34;15.73;;;7.47;;
46729;SDS011;32476;50.002;11.854;2024-01-30T05:00:00;11.27;;;6.50;;
46729;SDS011;32476;50.002;11.854;2024-01-30T05:02:26;13.13;;;8.20;;
46729;SDS011;32476;50.002;11.854;2024-01-30T05:04:54;12.97;;;7.97;;
46729;SDS011;32476;50.002;11.854;2024-01-30T05:07:20;14.07;;;7.70;;
46729;SDS011;32476;50.002;11.854;2024-01-30T05:09:46;16.50;;;7.87;;
46729;SDS011;32476;50.002;11.854;2024-01-30T05:12:13;17.10;;;8.10;;
46729;SDS011;32476;50.002;11.854;2024-01-30T05:14:39;16.03;;;8.83;;
46729;SDS011;32476;50.002;11.854;2024-01-30T05:17:05;12.07;;;7.30;;
46729;SDS011;32476;50.002;11.854;2024-01-30T05:19:34;15.97;;;8.33;;
46729;SDS011;32476;50.002;11.854;2024-01-30T05:22:00;15.77;;;8.00;;
46729;SDS011;32476;50.002;11.854;2024-01-30T05:24:26;11.83;;;6.30;;
46729;SDS011;32476;50.002;11.854;2024-01-30T05:26:53;13.87;;;6.80;;
46729;SDS011;32476;50.002;11.854;2024-01-30T05:29:19;13.33;;;6.83;;
46729;SDS011;32476;50.002;11.854;2024-01-30T05:31:45;13.67;;;7.30;;
46729;SDS011;32476;50.002;11.854;2024-01-30T05:34:12;12.47;;;7.20;;
46729;SDS011;32476;50.002;11.854;2024-01-30T05:36:38;12.83;;;7.30;;
46729;SDS011;32476;50.002;11.854;2024-01-30T05:39:04;11.17;;;6.53;;
46729;SDS011;32476;50.002;11.854;2024-01-30T05:41:32;14.13;;;7.00;;
46729;SDS011;32476;50.002;11.854;2024-01-30T05:43:58;11.77;;;6.70;;
46729;SDS011;32476;50.002;11.854;2024-01-30T05:46:24;12.03;;;6.70;;
46729;SDS011;32476;50.002;11.854;2024-01-30T05:48:51;9.03;;;5.63;;
46729;SDS011;32476;50.002;11.854;2024-01-30T05:51:17;14.30;;;6.33;;
46729;SDS011;32476;50.002;11.854;2024-01-30T05:53:43;12.27;;;6.60;;
46729;SDS011;32476;50.002;11.854;2024-01-30T05:56:11;10.40;;;5.93;;
46729;SDS011;32476;50.002;11.854;2024-01-30T05:58:37;12.43;;;6.13;;
46729;SDS011;32476;50.002;11.854;2024-01-30T06:01:06;13.97;;;7.10;;
46729;SDS011;32476;50.002;11.854;2024-01-30T06:03:35;9.30;;;5.50;;
46729;SDS011;32476;50.002;11.854;2024-01-30T06:06:01;12.67;;;6.00;;
46729;SDS011;32476;50.002;11.854;2024-01-30T06:08:27;12.40;;;5.67;;
46729;SDS011;32476;50.002;11.854;2024-01-30T06:10:54;18.10;;;8.83;;
46729;SDS011;32476;50.002;11.854;2024-01-30T06:13:20;17.97;;;9.13;;
46729;SDS011;32476;50.002;11.854;2024-01-30T06:15:47;14.43;;;9.20;;
46729;SDS011;32476;50.002;11.854;2024-01-30T06:18:14;14.73;;;8.10;;
46729;SDS011;32476;50.002;11.854;2024-01-30T06:20:40;11.40;;;6.10;;
46729;SDS011;32476;50.002;11.854;2024-01-30T06:23:06;14.90;;;6.00;;
46729;SDS011;32476;50.002;11.854;2024-01-30T06:25:33;11.80;;;5.67;;
46729;SDS011;32476;50.002;11.854;2024-01-30T06:27:59;12.90;;;6.50;;
46729;SDS011;32476;50.002;11.854;2024-01-30T06:30:25;9.37;;;6.10;;
46729;SDS011;32476;50.002;11.854;2024-01-30T06:32:53;16.37;;;7.37;;
46729;SDS011;32476;50.002;11.854;2024-01-30T06:35:19;11.10;;;6.60;;
46729;SDS011;32476;50.002;11.854;2024-01-30T06:37:45;16.07;;;6.73;;
46729;SDS011;32476;50.002;11.854;2024-01-30T06:40:13;15.80;;;7.20;;
46729;SDS011;32476;50.002;11.854;2024-01-30T06:42:39;11.77;;;7.70;;
46729;SDS011;32476;50.002;11.854;2024-01-30T06:45:05;15.97;;;8.90;;
46729;SDS011;32476;50.002;11.854;2024-01-30T06:47:34;11.80;;;7.37;;
46729;SDS011;32476;50.002;11.854;2024-01-30T06:50:00;17.07;;;8.03;;
46729;SDS011;32476;50.002;11.854;2024-01-30T06:52:27;14.27;;;7.80;;
46729;SDS011;32476;50.002;11.854;2024-01-30T06:54:55;14.70;;;8.47;;
46729;SDS011;32476;50.002;11.854;2024-01-30T06:57:20;13.27;;;8.23;;
46729;SDS011;32476;50.002;11.854;2024-01-30T06:59:46;13.43;;;8.10;;
46729;SDS011;32476;50.002;11.854;2024-01-30T07:02:14;14.13;;;8.03;;
46729;SDS011;32476;50.002;11.854;2024-01-30T07:04:40;17.60;;;9.30;;
46729;SDS011;32476;50.002;11.854;2024-01-30T07:07:07;20.57;;;9.57;;
46729;SDS011;32476;50.002;11.854;2024-01-30T07:09:39;16.77;;;10.20;;
46729;SDS011;32476;50.002;11.854;2024-01-30T07:12:05;17.13;;;9.67;;
46729;SDS011;32476;50.002;11.854;2024-01-30T07:14:31;19.10;;;9.80;;
46729;SDS011;32476;50.002;11.854;2024-01-30T07:16:58;15.67;;;8.87;;
46729;SDS011;32476;50.002;11.854;2024-01-30T07:19:24;16.13;;;10.03;;
46729;SDS011;32476;50.002;11.854;2024-01-30T07:21:50;18.37;;;10.57;;
46729;SDS011;32476;50.002;11.854;2024-01-30T07:24:18;20.07;;;10.57;;
46729;SDS011;32476;50.002;11.854;2024-01-30T07:26:44;16.63;;;9.57;;
46729;SDS011;32476;50.002;11.854;2024-01-30T07:29:10;18.23;;;10.87;;
46729;SDS011;32476;50.002;11.854;2024-01-30T07:31:37;19.73;;;12.70;;
46729;SDS011;32476;50.002;11.854;2024-01-30T07:34:03;25.20;;;14.80;;
46729;SDS011;32476;50.002;11.854;2024-01-30T07:36:29;19.53;;;11.70;;
46729;SDS011;32476;50.002;11.854;2024-01-30T07:38:56;20.97;;;11.40;;
46729;SDS011;32476;50.002;11.854;2024-01-30T07:41:22;20.03;;;11.07;;
46729;SDS011;32476;50.002;11.854;2024-01-30T07:43:50;23.00;;;10.70;;
46729;SDS011;32476;50.002;11.854;2024-01-30T07:46:18;18.67;;;10.17;;
46729;SDS011;32476;50.002;11.854;2024-01-30T07:48:43;18.93;;;10.77;;
46729;SDS011;32476;50.002;11.854;2024-01-30T07:51:09;18.47;;;9.93;;
46729;SDS011;32476;50.002;11.854;2024-01-30T07:53:37;19.50;;;9.50;;
46729;SDS011;32476;50.002;11.854;2024-01-30T07:56:04;16.57;;;9.80;;
46729;SDS011;32476;50.002;11.854;2024-01-30T07:58:32;22.37;;;10.47;;
46729;SDS011;32476;50.002;11.854;2024-01-30T08:00:59;20.07;;;11.03;;
46729;SDS011;32476;50.002;11.854;2024-01-30T08:03:26;23.00;;;10.60;;
46729;SDS011;32476;50.002;11.854;2024-01-30T08:05:51;22.80;;;10.37;;
46729;SDS011;32476;50.002;11.854;2024-01-30T08:08:19;18.50;;;11.03;;
46729;SDS011;32476;50.002;11.854;2024-01-30T08:10:45;19.33;;;10.37;;
46729;SDS011;32476;50.002;11.854;2024-01-30T08:13:11;21.23;;;10.93;;
46729;SDS011;32476;50.002;11.854;2024-01-30T08:15:38;24.37;;;12.87;;
46729;SDS011;32476;50.002;11.854;2024-01-30T08:18:04;21.70;;;10.90;;
46729;SDS011;32476;50.002;11.854;2024-01-30T08:20:32;22.47;;;11.57;;
46729;SDS011;32476;50.002;11.854;2024-01-30T08:22:59;24.10;;;12.03;;
46729;SDS011;32476;50.002;11.854;2024-01-30T08:25:26;19.53;;;10.30;;
46729;SDS011;32476;50.002;11.854;2024-01-30T08:27:53;23.20;;;11.50;;
46729;SDS011;32476;50.002;11.854;2024-01-30T08:30:20;22.43;;;11.90;;
46729;SDS011;32476;50.002;11.854;2024-01-30T08:32:46;17.93;;;11.47;;
46729;SDS011;32476;50.002;11.854;2024-01-30T08:35:12;18.77;;;11.27;;
46729;SDS011;32476;50.002;11.854;2024-01-30T08:37:42;23.00;;;11.73;;
46729;SDS011;32476;50.002;11.854;2024-01-30T08:40:08;21.10;;;11.80;;
46729;SDS011;32476;50.002;11.854;2024-01-30T08:42:34;22.57;;;11.83;;
46729;SDS011;32476;50.002;11.854;2024-01-30T08:45:01;21.17;;;11.67;;
46729;SDS011;32476;50.002;11.854;2024-01-30T08:47:30;20.67;;;11.43;;
46729;SDS011;32476;50.002;11.854;2024-01-30T08:49:56;21.90;;;11.57;;
46729;SDS011;32476;50.002;11.854;2024-01-30T08:52:23;20.73;;;11.10;;
46729;SDS011;32476;50.002;11.854;2024-01-30T08:54:49;23.10;;;10.87;;
46729;SDS011;32476;50.002;11.854;2024-01-30T08:57:15;20.93;;;11.33;;
46729;SDS011;32476;50.002;11.854;2024-01-30T08:59:43;20.40;;;11.60;;
46729;SDS011;32476;50.002;11.854;2024-01-30T09:02:11;20.97;;;11.30;;
46729;SDS011;32476;50.002;11.854;2024-01-30T09:04:38;18.40;;;10.50;;
46729;SDS011;32476;50.002;11.854;2024-01-30T09:07:06;21.33;;;11.40;;
46729;SDS011;32476;50.002;11.854;2024-01-30T09:09:34;18.00;;;10.80;;
46729;SDS011;32476;50.002;11.854;2024-01-30T09:12:00;19.13;;;11.67;;
46729;SDS011;32476;50.002;11.854;2024-01-30T09:14:31;22.13;;;11.13;;
46729;SDS011;32476;50.002;11.854;2024-01-30T09:17:00;17.90;;;11.33;;
46729;SDS011;32476;50.002;11.854;2024-01-30T09:19:26;17.33;;;10.70;;
46729;SDS011;32476;50.002;11.854;2024-01-30T09:21:53;17.33;;;10.63;;
46729;SDS011;32476;50.002;11.854;2024-01-30T09:24:19;21.43;;;11.23;;
46729;SDS011;32476;50.002;11.854;2024-01-30T09:26:45;18.77;;;10.10;;
46729;SDS011;32476;50.002;11.854;2024-01-30T09:29:13;23.37;;;11.80;;
46729;SDS011;32476;50.002;11.854;2024-01-30T09:31:39;19.13;;;10.70;;
46729;SDS011;32476;50.002;11.854;2024-01-30T09:34:08;19.73;;;11.10;;
46729;SDS011;32476;50.002;11.854;2024-01-30T09:36:36;16.73;;;9.97;;
46729;SDS011;32476;50.002;11.854;2024-01-30T09:39:02;19.30;;;10.13;;
46729;SDS011;32476;50.002;11.854;2024-01-30T09:41:29;16.77;;;10.63;;
46729;SDS011;32476;50.002;11.854;2024-01-30T09:44:01;15.17;;;10.13;;
46729;SDS011;32476;50.002;11.854;2024-01-30T09:46:28;19.93;;;10.13;;
46729;SDS011;32476;50.002;11.854;2024-01-30T09:48:57;19.50;;;11.00;;
46729;SDS011;32476;50.002;11.854;2024-01-30T09:51:25;17.10;;;9.57;;
46729;SDS011;32476;50.002;11.854;2024-01-30T09:53:52;18.77;;;10.70;;
46729;SDS011;32476;50.002;11.854;2024-01-30T09:56:20;20.17;;;10.40;;
46729;SDS011;32476;50.002;11.854;2024-01-30T09:58:48;18.07;;;10.47;;
46729;SDS011;32476;50.002;11.854;2024-01-30T10:01:14;16.87;;;10.90;;
46729;SDS011;32476;50.002;11.854;2024-01-30T10:03:44;18.00;;;10.20;;
46729;SDS011;32476;50.002;11.854;2024-01-30T10:06:12;14.63;;;9.93;;
46729;SDS011;32476;50.002;11.854;2024-01-30T10:08:39;16.73;;;10.33;;
46729;SDS011;32476;50.002;11.854;2024-01-30T10:11:05;19.77;;;12.47;;
46729;SDS011;32476;50.002;11.854;2024-01-30T10:13:33;18.63;;;11.40;;
46729;SDS011;32476;50.002;11.854;2024-01-30T10:15:59;19.00;;;12.10;;
46729;SDS011;32476;50.002;11.854;2024-01-30T10:18:27;19.13;;;11.93;;
46729;SDS011;32476;50.002;11.854;2024-01-30T10:20:55;19.43;;;11.00;;
46729;SDS011;32476;50.002;11.854;2024-01-30T10:23:21;20.03;;;11.40;;
46729;SDS011;32476;50.002;11.854;2024-01-30T10:25:47;15.77;;;10.53;;
46729;SDS011;32476;50.002;11.854;2024-01-30T10:28:14;17.97;;;11.30;;
46729;SDS011;32476;50.002;11.854;2024-01-30T10:30:40;16.70;;;9.80;;
46729;SDS011;32476;50.002;11.854;2024-01-30T10:33:06;16.47;;;10.30;;
46729;SDS011;32476;50.002;11.854;2024-01-30T10:35:34;16.73;;;9.83;;
46729;SDS011;32476;50.002;11.854;2024-01-30T10:38:01;21.33;;;10.93;;
46729;SDS011;32476;50.002;11.854;2024-01-30T10:40:29;17.20;;;11.20;;
46729;SDS011;32476;50.002;11.854;2024-01-30T10:42:59;16.03;;;10.80;;
46729;SDS011;32476;50.002;11.854;2024-01-30T10:45:27;17.93;;;10.53;;
46729;SDS011;32476;50.002;11.854;2024-01-30T10:47:54;23.03;;;10.90;;
46729;SDS011;32476;50.002;11.854;2024-01-30T10:50:25;17.67;;;10.73;;
46729;SDS011;32476;50.002;11.854;2024-01-30T10:52:52;18.77;;;11.57;;
46729;SDS011;32476;50.002;11.854;2024-01-30T10:55:20;19.07;;;10.57;;
46729;SDS011;32476;50.002;11.854;2024-01-30T10:57:50;17.77;;;10.73;;
46729;SDS011;32476;50.002;11.854;2024-01-30T11:00:16;39.57;;;21.53;;
46729;SDS011;32476;50.002;11.854;2024-01-30T11:02:47;37.43;;;22.40;;
46729;SDS011;32476;50.002;11.854;2024-01-30T11:05:22;19.97;;;11.27;;
46729;SDS011;32476;50.002;11.854;2024-01-30T11:07:51;21.57;;;11.33;;
46729;SDS011;32476;50.002;11.854;2024-01-30T11:10:19;20.17;;;10.60;;
46729;SDS011;32476;50.002;11.854;2024-01-30T11:12:45;22.57;;;11.80;;
46729;SDS011;32476;50.002;11.854;2024-01-30T11:15:15;20.40;;;11.47;;
46729;SDS011;32476;50.002;11.854;2024-01-30T11:20:21;18.73;;;10.63;;
46729;SDS011;32476;50.002;11.854;2024-01-30T11:22:55;20.33;;;12.73;;
46729;SDS011;32476;50.002;11.854;2024-01-30T11:25:22;19.10;;;11.53;;
46729;SDS011;32476;50.002;11.854;2024-01-30T11:27:51;18.37;;;10.50;;
46729;SDS011;32476;50.002;11.854;2024-01-30T11:30:30;18.30;;;10.90;;
46729;SDS011;32476;50.002;11.854;2024-01-30T11:35:39;15.83;;;10.60;;
46729;SDS011;32476;50.002;11.854;2024-01-30T11:38:08;17.63;;;9.43;;
46729;SDS011;32476;50.002;11.854;2024-01-30T11:40:36;17.17;;;10.83;;
46729;SDS011;32476;50.002;11.854;2024-01-30T11:43:05;19.17;;;11.40;;
46729;SDS011;32476;50.002;11.854;2024-01-30T11:45:33;16.60;;;9.87;;
46729;SDS011;32476;50.002;11.854;2024-01-30T11:48:00;16.27;;;9.53;;
46729;SDS011;32476;50.002;11.854;2024-01-30T11:50:30;15.83;;;9.57;;
46729;SDS011;32476;50.002;11.854;2024-01-30T11:52:57;18.23;;;10.13;;
46729;SDS011;32476;50.002;11.854;2024-01-30T11:55:25;17.23;;;10.07;;
46729;SDS011;32476;50.002;11.854;2024-01-30T11:57:56;17.13;;;10.53;;
46729;SDS011;32476;50.002;11.854;2024-01-30T12:00:24;21.43;;;11.57;;
46729;SDS011;32476;50.002;11.854;2024-01-30T12:02:51;16.07;;;11.33;;
46729;SDS011;32476;50.002;11.854;2024-01-30T12:05:22;19.63;;;11.53;;
46729;SDS011;32476;50.002;11.854;2024-01-30T12:07:49;25.97;;;11.13;;
46729;SDS011;32476;50.002;11.854;2024-01-30T12:10:15;20.07;;;10.10;;
46729;SDS011;32476;50.002;11.854;2024-01-30T12:12:46;17.60;;;9.80;;
46729;SDS011;32476;50.002;11.854;2024-01-30T12:15:15;16.70;;;9.10;;
46729;SDS011;32476;50.002;11.854;2024-01-30T12:17:42;18.27;;;10.20;;
46729;SDS011;32476;50.002;11.854;2024-01-30T12:20:14;16.00;;;9.53;;
46729;SDS011;32476;50.002;11.854;2024-01-30T12:22:43;14.83;;;8.70;;
46729;SDS011;32476;50.002;11.854;2024-01-30T12:25:14;14.90;;;8.63;;
46729;SDS011;32476;50.002;11.854;2024-01-30T12:27:46;15.10;;;8.87;;
46729;SDS011;32476;50.002;11.854;2024-01-30T12:30:18;13.57;;;8.23;;
46729;SDS011;32476;50.002;11.854;2024-01-30T12:32:46;16.37;;;8.83;;
46729;SDS011;32476;50.002;11.854;2024-01-30T12:35:16;14.17;;;7.77;;
46729;SDS011;32476;50.002;11.854;2024-01-30T12:37:45;13.70;;;7.37;;
46729;SDS011;32476;50.002;11.854;2024-01-30T12:40:16;16.07;;;7.97;;
46729;SDS011;32476;50.002;11.854;2024-01-30T12:42:42;15.40;;;8.67;;
46729;SDS011;32476;50.002;11.854;2024-01-30T12:45:15;13.53;;;7.27;;
46729;SDS011;32476;50.002;11.854;2024-01-30T12:47:45;14.67;;;7.67;;
46729;SDS011;32476;50.002;11.854;2024-01-30T12:50:11;11.20;;;6.70;;
46729;SDS011;32476;50.002;11.854;2024-01-30T12:52:39;14.87;;;7.10;;
46729;SDS011;32476;50.002;11.854;2024-01-30T12:55:05;10.97;;;6.43;;
46729;SDS011;32476;50.002;11.854;2024-01-30T12:57:31;8.60;;;5.00;;
46729;SDS011;32476;50.002;11.854;2024-01-30T12:59:58;11.40;;;6.40;;
46729;SDS011;32476;50.002;11.854;2024-01-30T13:02:24;15.40;;;6.87;;
46729;SDS011;32476;50.002;11.854;2024-01-30T13:04:51;11.10;;;6.27;;
46729;SDS011;32476;50.002;11.854;2024-01-30T13:07:19;12.23;;;6.47;;
46729;SDS011;32476;50.002;11.854;2024-01-30T13:09:45;12.43;;;6.90;;
46729;SDS011;32476;50.002;11.854;2024-01-30T13:12:13;9.80;;;6.00;;
46729;SDS011;32476;50.002;11.854;2024-01-30T13:14:40;11.87;;;5.93;;
46729;SDS011;32476;50.002;11.854;2024-01-30T13:17:06;9.80;;;5.93;;
46729;SDS011;32476;50.002;11.854;2024-01-30T13:19:32;11.63;;;7.40;;
46729;SDS011;32476;50.002;11.854;2024-01-30T13:21:59;17.43;;;7.60;;
46729;SDS011;32476;50.002;11.854;2024-01-30T13:24:25;8.87;;;5.23;;
46729;SDS011;32476;50.002;11.854;2024-01-30T13:26:52;9.47;;;6.10;;
46729;SDS011;32476;50.002;11.854;2024-01-30T13:29:19;10.40;;;5.90;;
46729;SDS011;32476;50.002;11.854;2024-01-30T13:31:45;8.30;;;4.70;;
46729;SDS011;32476;50.002;11.854;2024-01-30T13:34:12;9.23;;;5.47;;
46729;SDS011;32476;50.002;11.854;2024-01-30T13:36:40;8.40;;;5.10;;
46729;SDS011;32476;50.002;11.854;2024-01-30T13:39:07;9.20;;;5.13;;
46729;SDS011;32476;50.002;11.854;2024-01-30T13:41:36;10.10;;;5.10;;
46729;SDS011;32476;50.002;11.854;2024-01-30T13:44:04;11.43;;;5.23;;
46729;SDS011;32476;50.002;11.854;2024-01-30T13:46:30;11.23;;;5.07;;
46729;SDS011;32476;50.002;11.854;2024-01-30T13:48:56;11.00;;;5.43;;
46729;SDS011;32476;50.002;11.854;2024-01-30T13:51:24;7.53;;;5.23;;
46729;SDS011;32476;50.002;11.854;2024-01-30T13:53:51;12.30;;;5.77;;
46729;SDS011;32476;50.002;11.854;2024-01-30T13:56:16;6.97;;;4.80;;
46729;SDS011;32476;50.002;11.854;2024-01-30T13:58:44;7.10;;;4.60;;
46729;SDS011;32476;50.002;11.854;2024-01-30T14:01:10;10.57;;;5.27;;
46729;SDS011;32476;50.002;11.854;2024-01-30T14:03:36;7.67;;;5.47;;
46729;SDS011;32476;50.002;11.854;2024-01-30T14:06:04;10.30;;;5.47;;
46729;SDS011;32476;50.002;11.854;2024-01-30T14:08:31;12.27;;;5.67;;
46729;SDS011;32476;50.002;11.854;2024-01-30T14:10:57;8.30;;;5.30;;
46729;SDS011;32476;50.002;11.854;2024-01-30T14:13:25;11.70;;;4.63;;
46729;SDS011;32476;50.002;11.854;2024-01-30T14:15:51;7.57;;;5.07;;
46729;SDS011;32476;50.002;11.854;2024-01-30T14:18:18;13.87;;;5.43;;
46729;SDS011;32476;50.002;11.854;2024-01-30T14:20:45;7.37;;;5.07;;
46729;SDS011;32476;50.002;11.854;2024-01-30T14:23:12;11.27;;;5.17;;
46729;SDS011;32476;50.002;11.854;2024-01-30T14:25:38;7.37;;;4.67;;